Time;durP1;ratioP1;P1;durP2;ratioP2;P2;SDS_P1;SDS_P2;PMS_P1;PMS_P2;Temp;Humidity;BMP_temperature;BMP_pressure;BME280_temperature;BME280_humidity;BME280_pressure;Samples;Min_cycle;Max_cycle;Signal;HPM_P1;HPM_P2
2022/11/15 00:00:50;;;;;;;0.57;0.30;;;10.30;99.90;;;;;;4993044;28;20241;-83
2022/11/15 00:03:17;;;;;;;0.20;0.20;;;10.30;99.90;;;;;;5008671;28;20053;-84
2022/11/15 00:05:44;;;;;;;0.60;0.50;;;10.30;99.90;;;;;;5007737;28;20049;-83
2022/11/15 00:08:11;;;;;;;0.32;0.30;;;10.20;99.90;;;;;;5008981;28;20064;-82
2022/11/15 00:10:39;;;;;;;1.08;0.55;;;10.20;99.90;;;;;;4992863;28;20515;-83
2022/11/15 00:13:07;;;;;;;0.40;0.30;;;10.10;99.90;;;;;;5008282;28;20049;-83
2022/11/15 00:15:40;;;;;;;0.47;0.40;;;10.10;99.90;;;;;;4992620;28;20614;-83
2022/11/15 00:18:12;;;;;;;1.10;0.40;;;10.10;99.90;;;;;;4991806;28;20053;-82
2022/11/15 00:20:39;;;;;;;0.35;0.30;;;10.00;99.90;;;;;;5008168;28;20063;-83
2022/11/15 00:23:06;;;;;;;0.63;0.30;;;10.00;99.90;;;;;;4992004;28;20400;-83
2022/11/15 00:25:33;;;;;;;0.60;0.40;;;10.00;99.90;;;;;;4991998;28;20045;-83
2022/11/15 00:27:59;;;;;;;0.43;0.35;;;9.90;99.90;;;;;;5008308;28;20158;-83
2022/11/15 00:30:26;;;;;;;0.57;0.30;;;9.90;99.90;;;;;;4991639;28;20051;-82
2022/11/15 00:32:54;;;;;;;0.43;0.30;;;9.90;99.90;;;;;;4991224;28;20053;-82
2022/11/15 00:35:21;;;;;;;0.47;0.30;;;9.80;99.90;;;;;;4991008;28;20045;-84
2022/11/15 00:37:48;;;;;;;0.40;0.35;;;9.80;99.90;;;;;;4992132;28;20641;-83
2022/11/15 00:40:15;;;;;;;0.22;0.22;;;9.80;99.90;;;;;;4992127;28;20085;-83
2022/11/15 00:42:42;;;;;;;0.82;0.40;;;9.80;99.90;;;;;;4990836;28;20048;-83
2022/11/15 00:45:09;;;;;;;0.30;0.30;;;9.80;99.90;;;;;;4991340;28;20484;-83
2022/11/15 00:47:36;;;;;;;0.47;0.40;;;9.80;99.90;;;;;;5007794;28;20061;-82
2022/11/15 00:50:04;;;;;;;0.38;0.30;;;9.80;99.90;;;;;;4991135;28;20586;-81
2022/11/15 00:52:30;;;;;;;0.65;0.43;;;9.80;99.90;;;;;;5008266;28;20060;-81
2022/11/15 00:54:57;;;;;;;0.32;0.25;;;9.80;99.90;;;;;;5024257;28;20053;-81
2022/11/15 00:57:24;;;;;;;0.85;0.35;;;9.80;99.90;;;;;;5007957;28;20064;-81
2022/11/15 00:59:51;;;;;;;0.38;0.30;;;9.80;99.90;;;;;;4991422;28;20062;-81
2022/11/15 01:02:18;;;;;;;0.38;0.30;;;9.80;99.90;;;;;;4991355;28;20556;-82
2022/11/15 01:04:45;;;;;;;0.30;0.20;;;9.80;99.90;;;;;;4990752;28;20129;-81
2022/11/15 01:07:12;;;;;;;0.35;0.25;;;9.90;99.90;;;;;;4991990;28;20050;-81
2022/11/15 01:09:39;;;;;;;0.95;0.40;;;9.90;99.90;;;;;;5023995;28;20057;-81
2022/11/15 01:12:06;;;;;;;0.52;0.30;;;9.90;99.90;;;;;;5007720;28;20060;-81
2022/11/15 01:14:33;;;;;;;1.02;0.30;;;9.90;99.90;;;;;;4990967;28;20767;-82
2022/11/15 01:17:01;;;;;;;0.90;0.45;;;9.80;99.90;;;;;;4991248;28;20053;-82
2022/11/15 01:19:28;;;;;;;0.70;0.40;;;9.90;99.90;;;;;;5006548;28;20053;-80
2022/11/15 01:21:54;;;;;;;0.85;0.45;;;9.80;99.90;;;;;;5007145;28;20049;-80
2022/11/15 01:24:21;;;;;;;0.20;0.20;;;9.80;99.90;;;;;;5007530;28;20136;-83
2022/11/15 01:26:48;;;;;;;1.40;0.20;;;9.80;99.90;;;;;;4991272;28;20484;-81
2022/11/15 01:29:15;;;;;;;0.63;0.40;;;9.80;99.90;;;;;;5007225;28;20136;-81
2022/11/15 01:31:42;;;;;;;1.27;0.55;;;9.80;99.90;;;;;;4990885;28;20063;-81
2022/11/15 01:34:09;;;;;;;0.40;0.30;;;9.80;99.90;;;;;;5005992;28;20061;-81
2022/11/15 01:36:36;;;;;;;0.85;0.47;;;9.90;99.90;;;;;;5007109;28;20476;-82
2022/11/15 01:39:03;;;;;;;0.50;0.30;;;9.90;99.90;;;;;;4990760;28;20053;-81
2022/11/15 01:41:31;;;;;;;0.95;0.47;;;9.90;99.90;;;;;;4991123;28;20049;-81
2022/11/15 01:44:48;;;;;;;1.05;0.50;;;9.90;99.90;;;;;;5006176;28;20050;-80
2022/11/15 01:47:33;;;;;;;0.20;0.20;;;9.90;99.90;;;;;;4994669;28;20059;-81
2022/11/15 01:50:06;;;;;;;0.82;0.40;;;10.00;99.90;;;;;;5005817;28;20049;-81
2022/11/15 01:52:33;;;;;;;1.75;0.47;;;10.00;99.90;;;;;;5006156;28;20661;-82
2022/11/15 01:55:06;;;;;;;0.50;0.40;;;10.00;99.90;;;;;;4990701;28;20060;-82
2022/11/15 01:57:33;;;;;;;1.35;0.45;;;10.00;99.90;;;;;;5024610;28;20061;-82
2022/11/15 02:00:00;;;;;;;1.02;0.65;;;9.90;99.90;;;;;;5005974;28;20057;-82
2022/11/15 02:02:27;;;;;;;0.90;0.43;;;9.90;99.90;;;;;;4990435;28;20057;-81
2022/11/15 02:04:54;;;;;;;0.80;0.38;;;9.90;99.90;;;;;;4989651;28;20526;-81
2022/11/15 02:07:21;;;;;;;0.28;0.28;;;9.90;99.90;;;;;;5023427;28;20065;-82
2022/11/15 02:09:48;;;;;;;1.25;0.45;;;9.90;99.90;;;;;;5006326;28;20060;-81
2022/11/15 02:12:17;;;;;;;0.70;0.30;;;9.90;99.90;;;;;;4990605;28;20063;-81
2022/11/15 02:14:47;;;;;;;1.20;0.28;;;9.90;99.90;;;;;;5005580;28;20080;-81
2022/11/15 02:17:33;;;;;;;1.50;0.52;;;9.80;99.90;;;;;;5006319;28;20128;-81
2022/11/15 02:20:36;;;;;;;0.40;0.30;;;9.80;99.90;;;;;;5005583;28;20064;-81
2022/11/15 02:23:33;;;;;;;1.33;0.40;;;9.80;99.90;;;;;;5006579;28;20060;-81
2022/11/15 02:26:48;;;;;;;0.65;0.20;;;9.80;99.90;;;;;;5006626;28;20072;-81
2022/11/15 02:29:52;;;;;;;0.80;0.43;;;9.90;99.90;;;;;;4992381;28;20140;-80
2022/11/15 02:32:30;;;;;;;0.90;0.50;;;9.90;99.90;;;;;;5037424;23;20330;-85
2022/11/15 02:35:07;;;;;;;0.52;0.40;;;9.90;99.90;;;;;;5025441;28;20132;-84
2022/11/15 02:37:45;;;;;;;1.35;0.63;;;9.90;99.90;;;;;;5028030;28;20403;-86
2022/11/15 02:40:24;;;;;;;1.77;0.40;;;9.90;99.90;;;;;;5010457;28;20531;-84
2022/11/15 02:45:41;;;;;;;0.68;0.50;;;9.90;99.90;;;;;;5038418;28;20051;-86
2022/11/15 02:48:08;;;;;;;0.25;0.20;;;9.80;99.90;;;;;;5050758;28;20083;-86
2022/11/15 02:50:36;;;;;;;0.82;0.40;;;9.80;99.90;;;;;;5035480;28;20471;-85
2022/11/15 02:53:03;;;;;;;1.50;0.30;;;9.80;99.90;;;;;;5060478;28;20045;-85
2022/11/15 02:55:38;;;;;;;0.30;0.30;;;9.80;99.90;;;;;;5031375;28;20392;-86
2022/11/15 02:58:26;;;;;;;0.70;0.40;;;9.80;99.90;;;;;;5049119;28;20049;-85
2022/11/15 03:01:35;;;;;;;0.57;0.40;;;9.70;99.90;;;;;;5011879;28;20080;-86
2022/11/15 03:04:13;;;;;;;0.65;0.30;;;9.70;99.90;;;;;;5006479;28;20519;-86
2022/11/15 03:06:53;;;;;;;0.75;0.30;;;9.70;99.90;;;;;;5027751;28;20046;-84
2022/11/15 03:09:42;;;;;;;1.27;0.30;;;9.80;99.90;;;;;;5011820;28;20050;-83
2022/11/15 03:12:43;;;;;;;0.35;0.28;;;9.80;99.90;;;;;;5027728;28;20053;-86
2022/11/15 03:15:30;;;;;;;1.67;0.50;;;9.90;99.90;;;;;;4976047;28;20054;-85
2022/11/15 03:18:33;;;;;;;2.53;0.60;;;10.00;99.90;;;;;;4959793;28;20060;-85
2022/11/15 03:21:05;;;;;;;0.50;0.40;;;10.00;99.90;;;;;;4991896;28;20092;-87
2022/11/15 03:23:32;;;;;;;0.63;0.30;;;10.00;99.90;;;;;;5019648;28;20053;-84
2022/11/15 03:26:00;;;;;;;0.60;0.30;;;10.10;99.90;;;;;;5011632;28;20108;-85
2022/11/15 03:28:42;;;;;;;0.30;0.20;;;10.10;99.90;;;;;;5027287;28;20049;-86
2022/11/15 03:33:56;;;;;;;0.30;0.28;;;10.20;99.90;;;;;;5019019;28;20506;-85
2022/11/15 03:36:23;;;;;;;1.55;0.35;;;10.20;99.90;;;;;;5014146;28;20053;-85
2022/11/15 03:38:51;;;;;;;0.95;0.30;;;10.30;99.90;;;;;;5014585;28;20143;-84
2022/11/15 03:41:47;;;;;;;1.63;0.60;;;10.30;99.90;;;;;;4998160;28;20057;-86
2022/11/15 03:44:25;;;;;;;0.20;0.20;;;10.30;99.90;;;;;;5015275;28;20589;-86
2022/11/15 03:47:06;;;;;;;0.80;0.45;;;10.40;99.90;;;;;;5031725;28;20049;-85
2022/11/15 03:49:34;;;;;;;0.95;0.43;;;10.40;99.90;;;;;;5015286;28;20707;-86
2022/11/15 03:52:03;;;;;;;0.70;0.40;;;10.40;99.90;;;;;;5014338;28;20223;-86
2022/11/15 03:54:30;;;;;;;0.30;0.20;;;10.40;99.90;;;;;;5030854;28;20048;-84
2022/11/15 03:56:57;;;;;;;0.57;0.40;;;10.40;99.90;;;;;;4998581;28;20045;-85
2022/11/15 03:59:24;;;;;;;0.32;0.30;;;10.40;99.90;;;;;;5003334;28;20139;-86
2022/11/15 04:01:50;;;;;;;0.40;0.30;;;10.40;99.90;;;;;;5016326;28;20055;-87
2022/11/15 04:04:19;;;;;;;0.45;0.25;;;10.40;99.90;;;;;;4982661;28;20046;-86
2022/11/15 04:06:46;;;;;;;0.40;0.40;;;10.40;99.90;;;;;;4979518;28;20377;-85
2022/11/15 04:09:13;;;;;;;0.80;0.40;;;10.30;99.90;;;;;;4994878;28;20460;-85
2022/11/15 04:11:39;;;;;;;1.20;0.40;;;10.30;99.90;;;;;;4978780;28;20050;-86
2022/11/15 04:14:06;;;;;;;0.15;0.15;;;10.30;99.90;;;;;;4993718;28;20049;-86
2022/11/15 04:16:33;;;;;;;0.30;0.30;;;10.40;99.90;;;;;;4999986;28;20084;-85
2022/11/15 04:24:44;;;;;;;0.68;0.40;;;10.30;99.90;;;;;;4995247;28;20050;-85
2022/11/15 04:27:13;;;;;;;0.43;0.30;;;10.40;99.90;;;;;;5014565;28;20046;-86
2022/11/15 04:29:40;;;;;;;0.90;0.40;;;10.40;99.90;;;;;;4982230;28;20046;-86
2022/11/15 04:32:07;;;;;;;0.55;0.20;;;10.50;99.90;;;;;;4997809;28;20061;-86
2022/11/15 04:34:34;;;;;;;0.28;0.28;;;10.50;99.90;;;;;;4981194;28;20050;-86
2022/11/15 04:37:13;;;;;;;0.80;0.30;;;10.60;99.90;;;;;;4981470;28;20073;-84
2022/11/15 04:39:40;;;;;;;2.22;0.57;;;10.70;99.90;;;;;;4984885;28;20053;-86
2022/11/15 04:42:07;;;;;;;0.95;0.40;;;10.80;99.90;;;;;;4981975;28;20053;-86
2022/11/15 04:44:34;;;;;;;0.75;0.35;;;10.90;99.90;;;;;;4997915;28;20065;-86
2022/11/15 04:47:01;;;;;;;0.75;0.40;;;10.90;99.90;;;;;;4998378;28;20140;-86
2022/11/15 04:49:28;;;;;;;0.60;0.40;;;11.00;99.90;;;;;;4981695;28;20052;-84
2022/11/15 04:51:55;;;;;;;0.55;0.30;;;11.10;99.90;;;;;;4982153;28;20492;-85
2022/11/15 04:54:22;;;;;;;0.90;0.45;;;11.10;99.90;;;;;;4981179;28;20196;-87
2022/11/15 04:56:49;;;;;;;0.88;0.30;;;11.20;99.90;;;;;;4997829;28;20496;-85
2022/11/15 04:59:15;;;;;;;0.88;0.40;;;11.20;99.90;;;;;;4997735;28;20057;-85
2022/11/15 05:01:42;;;;;;;0.95;0.50;;;11.20;99.90;;;;;;4980783;28;20642;-86
2022/11/15 05:04:19;;;;;;;0.50;0.35;;;11.30;99.90;;;;;;4981671;28;20073;-85
2022/11/15 05:06:47;;;;;;;1.40;0.40;;;11.40;99.90;;;;;;4982932;28;20052;-86
2022/11/15 05:09:14;;;;;;;1.02;0.52;;;11.40;99.90;;;;;;4981428;28;20050;-85
2022/11/15 05:11:41;;;;;;;0.60;0.40;;;11.40;99.90;;;;;;4980898;28;20128;-86
2022/11/15 05:14:08;;;;;;;1.08;0.50;;;11.50;99.90;;;;;;4980333;28;20049;-86
2022/11/15 05:16:35;;;;;;;1.40;0.60;;;11.50;99.90;;;;;;4997167;28;20045;-85
2022/11/15 05:19:02;;;;;;;2.75;0.60;;;11.50;99.90;;;;;;5012710;28;20072;-85
2022/11/15 05:21:30;;;;;;;5.70;0.95;;;11.60;99.90;;;;;;4996503;28;20059;-86
2022/11/15 05:23:56;;;;;;;0.73;0.40;;;11.70;99.90;;;;;;4980556;28;20087;-86
2022/11/15 05:26:23;;;;;;;1.27;0.60;;;11.70;99.90;;;;;;4996401;28;20065;-85
2022/11/15 05:28:54;;;;;;;1.65;0.80;;;11.80;99.90;;;;;;4980148;28;20042;-85
2022/11/15 05:31:22;;;;;;;1.13;0.63;;;11.80;99.90;;;;;;4986836;28;20053;-84
2022/11/15 05:33:50;;;;;;;2.35;0.60;;;11.90;99.90;;;;;;4987422;28;20046;-86
2022/11/15 05:36:26;;;;;;;0.70;0.35;;;11.90;99.90;;;;;;4979523;28;20055;-86
2022/11/15 05:38:53;;;;;;;2.15;0.88;;;11.90;99.90;;;;;;5030867;28;20436;-86
2022/11/15 05:41:22;;;;;;;1.35;0.68;;;11.90;99.90;;;;;;5012537;28;20519;-86
2022/11/15 05:43:49;;;;;;;1.50;0.85;;;12.00;99.90;;;;;;5012886;28;20045;-85
2022/11/15 05:46:16;;;;;;;1.52;0.80;;;12.00;99.90;;;;;;4995973;28;20568;-86
2022/11/15 05:48:45;;;;;;;1.35;0.55;;;12.00;99.90;;;;;;5009585;28;20053;-85
2022/11/15 05:51:12;;;;;;;1.38;0.57;;;12.00;99.90;;;;;;5009621;28;20077;-85
2022/11/15 05:53:39;;;;;;;1.63;1.02;;;12.00;99.90;;;;;;4993088;28;20060;-85
2022/11/15 05:56:06;;;;;;;0.75;0.60;;;12.00;99.90;;;;;;4994169;28;20144;-86
2022/11/15 05:58:33;;;;;;;2.30;0.57;;;12.00;99.90;;;;;;4992101;28;20056;-85
2022/11/15 06:01:00;;;;;;;1.02;0.60;;;12.10;99.90;;;;;;4989264;28;20459;-84
2022/11/15 06:03:27;;;;;;;1.38;0.52;;;12.10;99.90;;;;;;4983253;28;20077;-88
2022/11/15 06:05:54;;;;;;;2.05;1.00;;;12.10;99.90;;;;;;5024601;28;20397;-85
2022/11/15 06:08:21;;;;;;;1.95;0.93;;;12.10;99.90;;;;;;4974330;28;20063;-84
2022/11/15 06:10:48;;;;;;;3.88;1.00;;;12.20;99.90;;;;;;4987826;28;20377;-86
2022/11/15 06:13:14;;;;;;;2.58;1.05;;;12.20;99.90;;;;;;4995016;28;20063;-83
2022/11/15 06:15:41;;;;;;;4.40;1.20;;;12.20;99.90;;;;;;4992252;28;20049;-85
2022/11/15 06:18:09;;;;;;;3.38;1.35;;;12.20;99.90;;;;;;4986256;28;20140;-84
2022/11/15 06:20:36;;;;;;;2.85;1.20;;;12.20;99.90;;;;;;4999491;28;20526;-84
2022/11/15 06:23:04;;;;;;;3.00;1.20;;;12.20;99.90;;;;;;4986926;28;20056;-85
2022/11/15 06:25:32;;;;;;;2.92;1.35;;;12.20;99.90;;;;;;4987698;28;20057;-85
2022/11/15 06:27:59;;;;;;;3.63;1.20;;;12.20;99.90;;;;;;4998869;28;20132;-84
2022/11/15 06:30:26;;;;;;;1.13;0.70;;;12.20;99.90;;;;;;4985927;28;20056;-85
2022/11/15 06:33:03;;;;;;;3.70;1.25;;;12.30;99.90;;;;;;5002561;28;20599;-86
2022/11/15 06:35:33;;;;;;;1.38;0.80;;;12.30;99.90;;;;;;4987265;28;20045;-84
2022/11/15 06:38:08;;;;;;;3.22;1.13;;;12.30;99.90;;;;;;4975907;28;20049;-86
2022/11/15 06:40:36;;;;;;;3.58;1.30;;;12.30;99.90;;;;;;4993364;28;20145;-82
2022/11/15 06:43:03;;;;;;;2.10;0.80;;;12.30;99.90;;;;;;4986801;28;20632;-84
2022/11/15 06:45:31;;;;;;;2.40;0.95;;;12.30;99.90;;;;;;4974809;28;20062;-84
2022/11/15 06:47:58;;;;;;;2.92;1.05;;;12.30;99.90;;;;;;4993267;28;20050;-90
2022/11/15 06:50:26;;;;;;;1.98;0.75;;;12.30;99.90;;;;;;4994811;28;20092;-86
2022/11/15 06:52:54;;;;;;;1.60;1.00;;;12.30;99.90;;;;;;5006130;28;20412;-87
2022/11/15 06:55:21;;;;;;;2.45;0.75;;;12.30;99.90;;;;;;4973839;28;20100;-86
2022/11/15 06:57:49;;;;;;;1.92;0.75;;;12.20;99.90;;;;;;4995683;28;20050;-86
2022/11/15 07:00:16;;;;;;;2.63;1.27;;;12.20;99.90;;;;;;5022286;28;20349;-88
2022/11/15 07:02:44;;;;;;;1.70;0.82;;;12.10;99.90;;;;;;4972481;28;20153;-85
2022/11/15 07:05:12;;;;;;;2.47;0.70;;;12.10;99.90;;;;;;5004871;28;20132;-75
2022/11/15 07:07:39;;;;;;;1.90;1.00;;;12.10;99.90;;;;;;4994408;28;20456;-86
2022/11/15 07:10:06;;;;;;;2.72;1.08;;;12.10;99.90;;;;;;4992029;28;20041;-86
2022/11/15 07:12:33;;;;;;;2.83;0.90;;;12.00;99.90;;;;;;5011577;28;20052;-88
2022/11/15 07:15:00;;;;;;;3.13;1.13;;;12.10;99.90;;;;;;4994127;28;20053;-86
2022/11/15 07:17:27;;;;;;;1.27;0.80;;;12.00;99.90;;;;;;4990067;28;20504;-84
2022/11/15 07:19:54;;;;;;;0.85;0.50;;;12.00;99.90;;;;;;5007912;28;20049;-84
2022/11/15 07:22:21;;;;;;;1.17;0.60;;;12.00;99.90;;;;;;5024762;28;20053;-84
2022/11/15 07:24:48;;;;;;;2.28;0.77;;;12.00;99.90;;;;;;4989807;28;20064;-84
2022/11/15 07:27:14;;;;;;;4.13;1.08;;;12.00;99.90;;;;;;5007167;28;20041;-85
2022/11/15 07:29:42;;;;;;;2.03;0.85;;;12.00;99.90;;;;;;4978898;28;20408;-84
2022/11/15 07:32:09;;;;;;;2.58;0.82;;;12.00;99.90;;;;;;4991730;28;20057;-84
2022/11/15 07:34:36;;;;;;;1.85;0.70;;;12.00;99.90;;;;;;5009208;28;20045;-85
2022/11/15 07:37:03;;;;;;;1.75;0.65;;;12.00;99.90;;;;;;4992454;28;20061;-84
2022/11/15 07:39:30;;;;;;;3.08;1.08;;;12.00;99.90;;;;;;4983413;28;20060;-85
2022/11/15 07:44:42;;;;;;;2.17;0.80;;;11.80;99.90;;;;;;4977708;28;20108;-84
2022/11/15 07:47:09;;;;;;;1.92;0.60;;;11.80;99.90;;;;;;4988023;28;20709;-84
2022/11/15 07:49:36;;;;;;;1.45;0.70;;;11.70;99.90;;;;;;4971516;28;20296;-84
2022/11/15 07:52:05;;;;;;;2.92;0.93;;;11.70;99.90;;;;;;4990105;28;20524;-83
2022/11/15 07:54:32;;;;;;;0.47;0.45;;;11.60;99.90;;;;;;4995283;28;20148;-84
2022/11/15 07:56:59;;;;;;;4.43;0.80;;;11.60;99.90;;;;;;5011545;28;20070;-83
2022/11/15 07:59:34;;;;;;;1.75;0.70;;;11.60;99.90;;;;;;4981641;28;20408;-84
2022/11/15 08:02:01;;;;;;;2.10;0.60;;;11.50;99.90;;;;;;4994119;28;20050;-84
2022/11/15 08:04:28;;;;;;;1.00;0.50;;;11.50;99.90;;;;;;5007899;28;20053;-83
2022/11/15 08:06:55;;;;;;;2.05;0.90;;;11.50;99.90;;;;;;4992795;28;20133;-84
2022/11/15 08:09:25;;;;;;;0.70;0.50;;;11.50;99.90;;;;;;4987244;28;20094;-84
2022/11/15 08:11:51;;;;;;;1.50;0.77;;;11.50;99.90;;;;;;4977263;28;20049;-84
2022/11/15 08:14:21;;;;;;;2.92;1.02;;;11.50;99.90;;;;;;5010921;28;20041;-85
2022/11/15 08:16:48;;;;;;;0.95;0.50;;;11.50;99.90;;;;;;4997619;28;20050;-86
2022/11/15 08:19:15;;;;;;;1.70;0.60;;;11.50;99.90;;;;;;5004946;28;20046;-85
2022/11/15 08:21:42;;;;;;;1.73;0.70;;;11.50;99.90;;;;;;4977239;28;20096;-86
2022/11/15 08:24:10;;;;;;;2.50;0.50;;;11.50;99.90;;;;;;4974150;28;20050;-85
2022/11/15 08:26:37;;;;;;;1.10;0.60;;;11.50;99.90;;;;;;4993462;28;20066;-86
2022/11/15 08:29:05;;;;;;;2.95;1.00;;;11.50;99.90;;;;;;5000698;28;20096;-85
2022/11/15 08:31:32;;;;;;;2.58;0.60;;;11.50;99.90;;;;;;5004596;28;20064;-86
2022/11/15 08:34:00;;;;;;;1.00;0.60;;;11.50;99.90;;;;;;5029196;28;20046;-86
2022/11/15 08:36:29;;;;;;;1.52;0.60;;;11.50;99.90;;;;;;5016164;28;20140;-86
2022/11/15 08:39:12;;;;;;;0.90;0.40;;;11.50;99.90;;;;;;5015536;28;20133;-84
2022/11/15 08:41:39;;;;;;;0.77;0.40;;;11.60;99.90;;;;;;4981410;28;20084;-85
2022/11/15 08:44:06;;;;;;;0.55;0.40;;;11.60;99.90;;;;;;4997167;28;20457;-86
2022/11/15 08:46:32;;;;;;;2.58;0.57;;;11.60;99.90;;;;;;5018473;28;20049;-87
2022/11/15 08:49:00;;;;;;;0.80;0.40;;;11.60;99.90;;;;;;5003062;28;20618;-87
2022/11/15 08:51:26;;;;;;;1.02;0.47;;;11.60;99.90;;;;;;5016561;28;20053;-86
2022/11/15 08:53:53;;;;;;;1.02;0.40;;;11.60;99.90;;;;;;5033405;28;20049;-85
2022/11/15 08:56:20;;;;;;;0.82;0.40;;;11.70;99.90;;;;;;5033563;28;20065;-87
2022/11/15 08:58:47;;;;;;;0.80;0.30;;;11.70;99.90;;;;;;5033319;28;20407;-87
2022/11/15 09:01:18;;;;;;;0.45;0.38;;;11.80;99.90;;;;;;5016914;28;20459;-87
2022/11/15 09:03:45;;;;;;;0.38;0.30;;;11.80;99.90;;;;;;5016605;28;20114;-87
2022/11/15 09:06:13;;;;;;;0.40;0.40;;;11.90;99.90;;;;;;5013756;28;20056;-86
2022/11/15 09:08:39;;;;;;;1.13;0.50;;;11.90;99.90;;;;;;4999712;28;20119;-88
2022/11/15 09:11:23;;;;;;;0.43;0.40;;;11.90;99.90;;;;;;4992307;28;20520;-86
2022/11/15 09:13:49;;;;;;;1.17;0.68;;;12.00;99.90;;;;;;5021018;28;21549;-92
2022/11/15 09:16:16;;;;;;;0.85;0.55;;;12.00;99.90;;;;;;5030394;28;20132;-87
2022/11/15 09:18:43;;;;;;;0.30;0.30;;;11.90;99.90;;;;;;5009780;28;20411;-85
2022/11/15 09:21:10;;;;;;;0.43;0.30;;;12.00;99.90;;;;;;5011353;28;20072;-86
2022/11/15 09:23:37;;;;;;;0.40;0.25;;;12.00;99.90;;;;;;5044988;28;20049;-85
2022/11/15 09:26:04;;;;;;;0.47;0.35;;;12.00;99.90;;;;;;5039085;28;20140;-87
2022/11/15 09:28:32;;;;;;;0.60;0.40;;;12.00;99.90;;;;;;4998650;28;20049;-88
2022/11/15 09:31:01;;;;;;;0.75;0.50;;;12.10;99.90;;;;;;5014059;28;20064;-90
2022/11/15 09:33:28;;;;;;;0.80;0.38;;;12.00;99.90;;;;;;5011013;28;20090;-89
2022/11/15 09:36:02;;;;;;;0.82;0.40;;;12.10;99.90;;;;;;5005655;28;20089;-88
2022/11/15 09:38:29;;;;;;;0.40;0.30;;;12.00;99.90;;;;;;5014721;28;20061;-88
2022/11/15 09:41:12;;;;;;;0.32;0.30;;;12.10;99.90;;;;;;4992459;28;20217;-90
2022/11/15 09:43:57;;;;;;;0.40;0.22;;;12.00;99.90;;;;;;5032404;28;20402;-88
2022/11/15 09:46:32;;;;;;;0.90;0.32;;;12.00;99.90;;;;;;5021594;28;20053;-86
2022/11/15 09:49:20;;;;;;;0.13;0.13;;;12.00;99.90;;;;;;5030507;28;20100;-89
2022/11/15 09:51:49;;;;;;;0.93;0.40;;;12.00;99.90;;;;;;5020190;28;20139;-88
2022/11/15 09:54:36;;;;;;;0.20;0.20;;;12.10;99.90;;;;;;4993474;28;20132;-84
2022/11/15 09:57:38;;;;;;;0.40;0.28;;;12.10;99.90;;;;;;5019746;28;20049;-86
2022/11/15 10:00:13;;;;;;;0.73;0.35;;;12.10;99.90;;;;;;5003841;28;20285;-87
2022/11/15 10:03:16;;;;;;;0.85;0.30;;;12.10;99.90;;;;;;5019726;28;20052;-83
2022/11/15 10:05:47;;;;;;;1.05;0.32;;;12.20;99.90;;;;;;4992859;28;20049;-88
2022/11/15 10:08:37;;;;;;;0.43;0.30;;;12.20;99.90;;;;;;4992096;28;20042;-82
2022/11/15 10:11:09;;;;;;;0.63;0.30;;;12.20;99.90;;;;;;5006746;28;20077;-83
2022/11/15 10:13:59;;;;;;;0.20;0.20;;;12.20;99.90;;;;;;5007233;28;20053;-86
2022/11/15 10:16:38;;;;;;;0.80;0.40;;;12.30;99.90;;;;;;5025721;28;20064;-83
2022/11/15 10:19:08;;;;;;;0.90;0.40;;;12.30;99.90;;;;;;5035068;28;20060;-86
2022/11/15 10:21:40;;;;;;;0.40;0.32;;;12.30;99.90;;;;;;5006963;28;20056;-86
2022/11/15 10:24:15;;;;;;;0.70;0.40;;;12.30;99.90;;;;;;5026910;28;20053;-82
2022/11/15 10:26:48;;;;;;;1.27;0.50;;;12.30;99.90;;;;;;5007414;28;20087;-87
2022/11/15 10:29:45;;;;;;;1.13;0.43;;;12.30;99.90;;;;;;4994298;28;20084;-92
2022/11/15 10:32:14;;;;;;;1.08;0.38;;;12.30;99.90;;;;;;5015276;28;20395;-88
2022/11/15 10:34:41;;;;;;;0.75;0.40;;;12.40;99.90;;;;;;4995264;28;20148;-86
2022/11/15 10:37:08;;;;;;;1.58;0.55;;;12.40;99.90;;;;;;4995838;28;20057;-90
2022/11/15 10:39:35;;;;;;;1.13;0.75;;;12.40;99.90;;;;;;5013962;28;20140;-89
2022/11/15 10:42:43;;;;;;;1.00;0.47;;;12.40;99.90;;;;;;4965067;28;20446;-89
2022/11/15 10:45:30;;;;;;;0.95;0.50;;;12.40;99.90;;;;;;4983036;28;20058;-88
2022/11/15 10:48:11;;;;;;;1.27;0.50;;;12.40;99.90;;;;;;4967023;28;20065;-90
2022/11/15 10:50:39;;;;;;;0.82;0.50;;;12.50;99.90;;;;;;5003560;28;20056;-85
2022/11/15 10:53:23;;;;;;;0.55;0.40;;;12.50;99.90;;;;;;4995398;28;20054;-91
2022/11/15 10:55:56;;;;;;;1.00;0.63;;;12.50;99.90;;;;;;4997883;28;20153;-93
2022/11/15 10:58:34;;;;;;;0.95;0.43;;;12.60;99.90;;;;;;4993279;28;20666;-87
2022/11/15 11:01:15;;;;;;;0.30;0.30;;;12.60;99.90;;;;;;5021478;28;20053;-92
2022/11/15 11:03:43;;;;;;;1.83;0.63;;;12.60;99.90;;;;;;5003524;28;20049;-88
2022/11/15 11:06:20;;;;;;;1.35;0.70;;;12.60;99.90;;;;;;4980288;28;20076;-91
2022/11/15 11:08:59;;;;;;;0.80;0.40;;;12.70;99.90;;;;;;4996066;28;20080;-88
2022/11/15 11:11:48;;;;;;;1.25;0.57;;;12.70;99.90;;;;;;4976084;28;20050;-91
2022/11/15 11:14:27;;;;;;;0.60;0.50;;;12.70;99.90;;;;;;4991543;28;20053;-93
2022/11/15 11:17:23;;;;;;;0.68;0.50;;;12.70;99.90;;;;;;4997663;28;20060;-87
2022/11/15 11:20:00;;;;;;;1.00;0.68;;;12.70;99.90;;;;;;5011899;28;20049;-91
2022/11/15 11:23:00;;;;;;;0.22;0.20;;;12.70;99.90;;;;;;5011207;28;20093;-88
2022/11/15 11:25:40;;;;;;;0.47;0.40;;;12.70;99.90;;;;;;5027482;28;20049;-91
2022/11/15 11:28:35;;;;;;;0.30;0.30;;;12.80;99.90;;;;;;5007675;28;20604;-86
2022/11/15 11:31:17;;;;;;;0.40;0.40;;;12.80;99.90;;;;;;5007705;28;20049;-88
2022/11/15 11:34:11;;;;;;;0.47;0.40;;;12.70;99.90;;;;;;5006510;28;20114;-93
2022/11/15 11:36:59;;;;;;;1.02;0.50;;;12.70;99.90;;;;;;5009230;28;20151;-93
2022/11/15 11:39:32;;;;;;;0.40;0.32;;;12.70;99.90;;;;;;5012025;28;20150;-88
2022/11/15 11:42:08;;;;;;;1.23;0.40;;;12.70;99.90;;;;;;5008854;28;20050;-89
2022/11/15 11:44:39;;;;;;;0.35;0.30;;;12.70;99.90;;;;;;4996068;28;20053;-89
2022/11/15 11:47:39;;;;;;;1.00;0.40;;;12.60;99.90;;;;;;4991985;28;20125;-89
2022/11/15 11:50:18;;;;;;;1.08;0.55;;;12.60;99.90;;;;;;4995453;28;20649;-87
2022/11/15 11:53:06;;;;;;;0.32;0.30;;;12.60;99.90;;;;;;5006857;28;20046;-88
2022/11/15 11:55:38;;;;;;;0.30;0.20;;;12.60;99.90;;;;;;5013187;28;20101;-88
2022/11/15 11:58:21;;;;;;;0.47;0.40;;;12.60;99.90;;;;;;4990991;28;20112;-88
2022/11/15 12:00:55;;;;;;;0.90;0.47;;;12.60;99.90;;;;;;5008524;28;20049;-87
2022/11/15 12:03:43;;;;;;;0.55;0.40;;;12.60;99.90;;;;;;4991740;28;20050;-88
2022/11/15 12:06:33;;;;;;;1.17;0.60;;;12.70;99.90;;;;;;5011044;28;20056;-89
2022/11/15 12:09:19;;;;;;;0.88;0.40;;;12.60;99.90;;;;;;4985503;28;20411;-88
2022/11/15 12:11:56;;;;;;;0.30;0.30;;;12.60;99.90;;;;;;5007367;28;20042;-88
2022/11/15 12:14:42;;;;;;;0.75;0.40;;;12.60;99.90;;;;;;5024289;28;20053;-88
2022/11/15 12:17:13;;;;;;;0.85;0.57;;;12.60;99.90;;;;;;4991185;28;20080;-88
2022/11/15 12:19:42;;;;;;;0.77;0.50;;;12.60;99.90;;;;;;4991747;28;20077;-88
2022/11/15 12:22:25;;;;;;;0.88;0.50;;;12.60;99.90;;;;;;4991464;28;20616;-88
2022/11/15 12:24:57;;;;;;;1.73;0.40;;;12.60;99.90;;;;;;5002115;28;20045;-88
2022/11/15 12:27:40;;;;;;;0.88;0.50;;;12.60;99.90;;;;;;4971219;28;20660;-88
2022/11/15 12:30:17;;;;;;;2.13;0.70;;;12.60;99.90;;;;;;4955688;28;20049;-87
2022/11/15 12:32:57;;;;;;;1.00;0.60;;;12.70;99.90;;;;;;5008498;28;20064;-88
2022/11/15 12:35:38;;;;;;;0.98;0.60;;;12.70;99.90;;;;;;4993849;28;20471;-88
2022/11/15 12:38:11;;;;;;;0.52;0.35;;;12.70;99.90;;;;;;4996839;28;20517;-88
2022/11/15 12:40:59;;;;;;;0.63;0.35;;;12.70;99.90;;;;;;4998329;28;20053;-88
2022/11/15 12:43:42;;;;;;;0.65;0.50;;;12.70;99.90;;;;;;5014550;28;20080;-88
2022/11/15 12:46:41;;;;;;;0.35;0.35;;;12.70;99.90;;;;;;5014375;28;20051;-88
2022/11/15 12:49:26;;;;;;;2.63;0.63;;;12.70;99.90;;;;;;5031764;28;20052;-90
2022/11/15 12:51:57;;;;;;;0.98;0.60;;;12.70;99.90;;;;;;5014642;28;20219;-88
2022/11/15 12:54:26;;;;;;;3.05;0.60;;;12.80;99.90;;;;;;5029478;28;20077;-88
2022/11/15 12:57:08;;;;;;;0.98;0.57;;;12.80;99.90;;;;;;5027746;28;20049;-88
2022/11/15 12:59:58;;;;;;;0.63;0.52;;;12.90;99.90;;;;;;5028913;28;20125;-89
2022/11/15 13:02:41;;;;;;;1.30;0.57;;;12.90;99.90;;;;;;5027807;28;20114;-88
2022/11/15 13:05:22;;;;;;;0.93;0.68;;;12.90;99.90;;;;;;5013832;28;20121;-88
2022/11/15 13:07:49;;;;;;;2.67;0.80;;;12.90;99.90;;;;;;5029914;28;20052;-88
2022/11/15 13:10:16;;;;;;;0.93;0.50;;;12.90;99.90;;;;;;5047460;28;20041;-87
2022/11/15 13:12:46;;;;;;;1.67;0.75;;;12.90;99.90;;;;;;5030051;28;20056;-87
2022/11/15 13:15:13;;;;;;;0.93;0.65;;;12.90;99.90;;;;;;5031184;28;20056;-87
2022/11/15 13:17:50;;;;;;;0.65;0.60;;;12.90;99.90;;;;;;5051010;28;20080;-88
2022/11/15 13:20:19;;;;;;;1.00;0.50;;;13.00;99.90;;;;;;5001738;28;20060;-89
2022/11/15 13:23:10;;;;;;;0.80;0.40;;;13.10;99.90;;;;;;5047400;28;20064;-91
2022/11/15 13:25:52;;;;;;;0.95;0.50;;;13.30;99.90;;;;;;5016532;28;20088;-88
2022/11/15 13:28:35;;;;;;;0.50;0.45;;;13.50;99.90;;;;;;5031669;28;20049;-89
2022/11/15 13:31:14;;;;;;;0.57;0.30;;;13.70;99.90;;;;;;5033966;28;20063;-89